createdAt,value
2023-05-14T00:00:44.598Z,101079.31
2023-05-14T00:01:48.482Z,101078.81
2023-05-14T00:02:52.305Z,101078.97
2023-05-14T00:03:55.807Z,101074.97
2023-05-14T00:04:59.391Z,101075.59
2023-05-14T00:06:02.988Z,101070.56
2023-05-14T00:07:06.226Z,101066.19
2023-05-14T00:08:09.625Z,101064.16
2023-05-14T00:09:13.648Z,101062.47
2023-05-14T00:10:18.169Z,101069.56
2023-05-14T00:11:21.909Z,101064.50
2023-05-14T00:12:25.438Z,101067.56
2023-05-14T00:13:28.713Z,101072.81
2023-05-14T00:14:32.003Z,101069.44
2023-05-14T00:15:35.520Z,101070.59
2023-05-14T00:16:39.298Z,101066.59
2023-05-14T00:17:43.504Z,101059.16
2023-05-14T00:18:47.043Z,101060.84
2023-05-14T00:19:50.678Z,101064.56
2023-05-14T00:20:55.290Z,101061.88
2023-05-14T00:21:58.755Z,101059.50
2023-05-14T00:23:02.234Z,101054.31
2023-05-14T00:24:05.720Z,101051.94
2023-05-14T00:25:09.675Z,101049.06
2023-05-14T00:26:13.252Z,101051.78
2023-05-14T00:27:17.385Z,101049.41
2023-05-14T00:28:20.764Z,101050.25
2023-05-14T00:29:24.894Z,101050.09
2023-05-14T00:30:28.189Z,101057.84
2023-05-14T00:31:31.289Z,101050.75
2023-05-14T00:32:34.616Z,101047.03
2023-05-14T00:33:37.606Z,101052.78
2023-05-14T00:34:41.355Z,101050.09
2023-05-14T00:35:45.025Z,101051.59
2023-05-14T00:36:48.578Z,101046.19
2023-05-14T00:37:51.896Z,101041.13
2023-05-14T00:38:55.124Z,101044.84
2023-05-14T00:39:59.025Z,101041.13
2023-05-14T00:41:02.735Z,101032.41
2023-05-14T00:42:06.982Z,101025.09
2023-05-14T00:43:10.426Z,101029.50
2023-05-14T00:44:14.186Z,101031.72
2023-05-14T00:45:17.937Z,101034.59
2023-05-14T00:46:21.142Z,101032.25
2023-05-14T00:47:24.242Z,101035.50
2023-05-14T00:48:27.661Z,101026.06
2023-05-14T00:49:31.556Z,101035.84
2023-05-14T00:50:35.178Z,101028.75
2023-05-14T00:51:38.591Z,101032.50
2023-05-14T00:52:42.324Z,101028.28
2023-05-14T00:53:46.757Z,101013.28
2023-05-14T00:54:50.452Z,101025.28
2023-05-14T00:55:54.115Z,101016.50
2023-05-14T00:56:57.904Z,101016.50
2023-05-14T00:58:01.394Z,101016.50
2023-05-14T00:59:05.103Z,101013.81
2023-05-14T01:00:09.829Z,101012.63
2023-05-14T01:01:16.418Z,101010.56
2023-05-14T01:02:19.770Z,101013.09
2023-05-14T01:03:23.755Z,101010.78
2023-05-14T01:04:27.709Z,101012.63
2023-05-14T01:05:41.418Z,101014.47
2023-05-14T01:06:53.292Z,101015.81
2023-05-14T01:08:07.742Z,101008.72
2023-05-14T01:09:51.342Z,101009.94
2023-05-14T01:11:18.087Z,101009.75
2023-05-14T01:12:41.641Z,101004.16
2023-05-14T01:14:15.390Z,101002.47
2023-05-14T01:15:22.901Z,101003.50
2023-05-14T01:16:27.881Z,101006.22
2023-05-14T01:17:33.257Z,101001.66
2023-05-14T01:18:37.224Z,101001.66
2023-05-14T01:19:41.735Z,101000.31
2023-05-14T01:20:46.240Z,101005.06
2023-05-14T01:21:49.717Z,101010.25
2023-05-14T01:22:54.107Z,101011.09
2023-05-14T01:23:57.606Z,101008.41
2023-05-14T01:25:01.335Z,101005.53
2023-05-14T01:26:05.468Z,101007.41
2023-05-14T01:27:32.938Z,101009.09
2023-05-14T01:28:36.942Z,101009.09
2023-05-14T01:29:41.652Z,101004.69
2023-05-14T01:30:58.515Z,101010.78
2023-05-14T01:32:02.328Z,101005.38
2023-05-14T01:33:12.739Z,101005.72
2023-05-14T01:34:20.802Z,101000.50
2023-05-14T01:35:27.949Z,101001.69
2023-05-14T01:36:31.827Z,101001.88
2023-05-14T01:37:35.073Z,100999.06
2023-05-14T01:38:38.819Z,100998.56
2023-05-14T01:39:42.485Z,100994.38
2023-05-14T01:40:46.635Z,100994.53
2023-05-14T01:41:50.603Z,100999.94
2023-05-14T01:42:54.593Z,100999.09
2023-05-14T01:43:57.857Z,100998.09
2023-05-14T01:45:01.320Z,100996.41
2023-05-14T01:46:05.844Z,101001.13
2023-05-14T01:47:09.455Z,101003.16
2023-05-14T01:48:12.510Z,100998.41
2023-05-14T01:49:18.974Z,100997.78
2023-05-14T01:50:22.459Z,100998.09
2023-05-14T01:51:25.924Z,100993.75
2023-05-14T01:52:28.885Z,100996.47
2023-05-14T01:53:31.956Z,100995.63
2023-05-14T01:54:35.226Z,100996.63
2023-05-14T01:55:39.243Z,100996.09
2023-05-14T01:56:42.747Z,101003.16
2023-05-14T01:57:46.206Z,100999.78
2023-05-14T01:58:49.819Z,101001.47
2023-05-14T01:59:53.373Z,100996.94
2023-05-14T02:00:57.011Z,100995.41
2023-05-14T02:02:00.480Z,101003.50
2023-05-14T02:03:04.747Z,101008.91
2023-05-14T02:04:08.207Z,101010.13
2023-05-14T02:05:12.921Z,101011.28
2023-05-14T02:06:15.942Z,101006.25
2023-05-14T02:07:19.002Z,101005.41
2023-05-14T02:08:22.018Z,101011.16
2023-05-14T02:09:25.735Z,101017.75
2023-05-14T02:10:29.088Z,101019.78
2023-05-14T02:11:31.929Z,101018.94
2023-05-14T02:12:35.446Z,101016.44
2023-05-14T02:13:38.846Z,101018.44
2023-05-14T02:14:41.764Z,101022.16
2023-05-14T02:15:45.028Z,101012.38
2023-05-14T02:16:48.247Z,101009.88
2023-05-14T02:17:51.947Z,101005.66
2023-05-14T02:18:55.713Z,101013.75
2023-05-14T02:19:59.331Z,101009.19
2023-05-14T02:21:02.552Z,101015.59
2023-05-14T02:22:06.257Z,101014.75
2023-05-14T02:23:10.448Z,101018.13
2023-05-14T02:24:14.022Z,101022.16
2023-05-14T02:25:17.027Z,101021.31
2023-05-14T02:26:20.805Z,101027.38
2023-05-14T02:27:24.220Z,101026.38
2023-05-14T02:28:27.946Z,101032.63
2023-05-14T02:29:31.567Z,101024.00
2023-05-14T02:30:34.593Z,101021.81
2023-05-14T02:31:38.482Z,101024.31
2023-05-14T02:32:42.522Z,101023.47
2023-05-14T02:33:46.379Z,101025.53
2023-05-14T02:34:49.795Z,101028.75
2023-05-14T02:35:53.271Z,101031.78
2023-05-14T02:36:56.756Z,101034.63
2023-05-14T02:38:00.159Z,101025.53
2023-05-14T02:39:05.378Z,101033.47
2023-05-14T02:40:10.032Z,101037.16
2023-05-14T02:41:12.872Z,101024.69
2023-05-14T02:42:16.253Z,101030.09
2023-05-14T02:43:19.885Z,101031.94
2023-05-14T02:44:23.331Z,101029.25
2023-05-14T02:45:26.651Z,101028.22
2023-05-14T02:46:31.549Z,101031.94
2023-05-14T02:47:37.561Z,101032.94
2023-05-14T02:48:41.912Z,101035.66
2023-05-14T02:49:45.715Z,101032.63
2023-05-14T02:50:50.581Z,101035.34
2023-05-14T02:51:55.316Z,101038.03
2023-05-14T02:52:58.525Z,101037.88
2023-05-14T02:54:01.768Z,101038.88
2023-05-14T02:55:06.120Z,101045.97
2023-05-14T02:56:10.069Z,101038.88
2023-05-14T02:57:13.292Z,101040.72
2023-05-14T02:58:16.896Z,101041.94
2023-05-14T02:59:20.518Z,101040.25
2023-05-14T03:00:24.627Z,101034.00
2023-05-14T03:01:28.570Z,101043.09
2023-05-14T03:02:32.369Z,101041.78
2023-05-14T03:03:36.657Z,101037.03
2023-05-14T03:04:40.285Z,101041.41
2023-05-14T03:05:44.017Z,101041.41
2023-05-14T03:06:47.676Z,101045.63
2023-05-14T03:07:52.335Z,101045.28
2023-05-14T03:08:55.908Z,101040.72
2023-05-14T03:10:00.804Z,101049.50
2023-05-14T03:11:04.419Z,101043.94
2023-05-14T03:12:08.561Z,101041.75
2023-05-14T03:13:12.060Z,101044.28
2023-05-14T03:14:15.075Z,101039.41
2023-05-14T03:15:18.268Z,101042.78
2023-05-14T03:16:21.301Z,101036.53
2023-05-14T03:17:25.123Z,101036.53
2023-05-14T03:18:31.172Z,101041.09
2023-05-14T03:19:34.610Z,101041.09
2023-05-14T03:20:38.243Z,101034.00
2023-05-14T03:21:42.800Z,101036.03
2023-05-14T03:22:46.558Z,101036.22
2023-05-14T03:23:50.383Z,101037.41
2023-05-14T03:24:55.380Z,101036.06
2023-05-14T03:25:59.206Z,101042.75
2023-05-14T03:27:03.038Z,101036.38
2023-05-14T03:28:06.810Z,101032.81
2023-05-14T03:29:11.728Z,101031.97
2023-05-14T03:30:16.909Z,101034.66
2023-05-14T03:31:19.917Z,101030.31
2023-05-14T03:32:23.386Z,101023.25
2023-05-14T03:33:26.897Z,101035.03
2023-05-14T03:34:30.261Z,101034.03
2023-05-14T03:35:33.552Z,101024.41
2023-05-14T03:36:40.371Z,101036.03
2023-05-14T03:37:43.512Z,101023.75
2023-05-14T03:38:46.932Z,101031.00
2023-05-14T03:39:51.488Z,101027.78
2023-05-14T03:40:54.491Z,101027.63
2023-05-14T03:41:59.263Z,101027.16
2023-05-14T03:43:02.727Z,101016.53
2023-05-14T03:44:07.270Z,101022.94
2023-05-14T03:45:11.003Z,101025.97
2023-05-14T03:46:14.842Z,101029.00
2023-05-14T03:47:18.201Z,101031.88
2023-05-14T03:48:21.650Z,101028.16
2023-05-14T03:49:26.154Z,101030.03
2023-05-14T03:50:29.375Z,101038.94
2023-05-14T03:51:32.426Z,101022.28
2023-05-14T03:52:36.117Z,101024.31
2023-05-14T03:53:39.324Z,101027.03
2023-05-14T03:54:43.176Z,101032.75
2023-05-14T03:55:46.851Z,101029.19
2023-05-14T03:56:50.382Z,101030.03
2023-05-14T03:57:53.694Z,101033.41
2023-05-14T03:58:57.293Z,101034.91
2023-05-14T04:00:00.702Z,101033.06
2023-05-14T04:01:03.676Z,101028.88
2023-05-14T04:02:07.683Z,101028.19
2023-05-14T04:03:11.657Z,101030.03
2023-05-14T04:04:15.158Z,101030.88
2023-05-14T04:05:18.297Z,101031.25
2023-05-14T04:06:22.188Z,101033.94
2023-05-14T04:07:26.058Z,101031.56
2023-05-14T04:08:29.537Z,101032.25
2023-05-14T04:09:33.175Z,101035.78
2023-05-14T04:10:36.926Z,101035.94
2023-05-14T04:11:40.659Z,101035.09
2023-05-14T04:12:43.929Z,101039.81
2023-05-14T04:13:47.083Z,101032.09
2023-05-14T04:14:51.098Z,101041.16
2023-05-14T04:15:54.122Z,101038.47
2023-05-14T04:16:58.995Z,101037.47
2023-05-14T04:18:03.632Z,101040.16
2023-05-14T04:19:06.930Z,101034.78
2023-05-14T04:20:11.253Z,101034.78
2023-05-14T04:21:14.727Z,101037.47
2023-05-14T04:22:17.815Z,101031.06
2023-05-14T04:23:21.149Z,101031.41
2023-05-14T04:24:24.837Z,101026.38
2023-05-14T04:25:28.429Z,101032.59
2023-05-14T04:26:31.469Z,101021.97
2023-05-14T04:27:35.327Z,101030.22
2023-05-14T04:28:38.634Z,101025.84
2023-05-14T04:29:41.965Z,101025.03
2023-05-14T04:30:46.252Z,101025.34
2023-05-14T04:31:50.672Z,101022.34
2023-05-14T04:32:53.766Z,101025.03
2023-05-14T04:33:57.199Z,101030.41
2023-05-14T04:35:00.496Z,101019.97
2023-05-14T04:36:03.539Z,101018.63
2023-05-14T04:37:07.362Z,101018.94
2023-05-14T04:38:12.290Z,101019.31
2023-05-14T04:39:15.578Z,101023.00
2023-05-14T04:40:19.861Z,101015.75
2023-05-14T04:41:23.511Z,101019.66
2023-05-14T04:42:26.963Z,101019.66
2023-05-14T04:43:30.722Z,101023.16
2023-05-14T04:44:35.076Z,101017.63
2023-05-14T04:45:38.763Z,101021.31
2023-05-14T04:46:42.465Z,101023.16
2023-05-14T04:47:47.307Z,101015.94
2023-05-14T04:48:51.329Z,101023.16
2023-05-14T04:49:54.456Z,101016.97
2023-05-14T04:50:57.415Z,101012.59
2023-05-14T04:52:00.602Z,101016.97
2023-05-14T04:53:04.301Z,101020.31
2023-05-14T04:54:07.743Z,101020.47
2023-05-14T04:55:11.341Z,101017.63
2023-05-14T04:56:14.898Z,101025.03
2023-05-14T04:57:18.084Z,101026.69
2023-05-14T04:58:21.938Z,101031.25
2023-05-14T04:59:25.764Z,101028.75
2023-05-14T05:00:29.709Z,101025.03
2023-05-14T05:01:33.023Z,101030.44
2023-05-14T05:02:36.808Z,101025.19
2023-05-14T05:03:40.147Z,101023.34
2023-05-14T05:04:43.314Z,101024.19
2023-05-14T05:05:46.982Z,101018.81
2023-05-14T05:06:50.731Z,101022.50
2023-05-14T05:07:54.349Z,101034.13
2023-05-14T05:08:59.067Z,101025.38
2023-05-14T05:10:04.431Z,101021.66
2023-05-14T05:11:07.836Z,101023.00
2023-05-14T05:12:11.045Z,101022.00
2023-05-14T05:13:14.464Z,101028.06
2023-05-14T05:14:18.327Z,101026.38
2023-05-14T05:15:22.366Z,101026.69
2023-05-14T05:16:26.834Z,101020.47
2023-05-14T05:17:30.876Z,101025.03
2023-05-14T05:18:34.174Z,101028.75
2023-05-14T05:19:43.812Z,101025.38
2023-05-14T05:20:47.882Z,101019.28
2023-05-14T05:21:51.695Z,101025.38
2023-05-14T05:22:54.862Z,101027.06
2023-05-14T05:23:58.530Z,101023.34
2023-05-14T05:25:02.107Z,101023.34
2023-05-14T05:26:05.598Z,101020.66
2023-05-14T05:27:08.648Z,101028.56
2023-05-14T05:28:11.842Z,101026.69
2023-05-14T05:29:15.220Z,101033.63
2023-05-14T05:30:18.097Z,101038.84
2023-05-14T05:31:21.877Z,101035.78
2023-05-14T05:32:25.958Z,101039.81
2023-05-14T05:33:29.188Z,101035.81
2023-05-14T05:34:32.820Z,101033.44
2023-05-14T05:35:35.802Z,101037.63
2023-05-14T05:36:38.695Z,101043.53
2023-05-14T05:37:43.059Z,101044.88
2023-05-14T05:38:46.458Z,101049.91
2023-05-14T05:39:49.984Z,101044.69
2023-05-14T05:40:53.969Z,101041.16
2023-05-14T05:41:56.893Z,101041.47
2023-05-14T05:42:59.674Z,101043.81
2023-05-14T05:44:03.370Z,101048.50
2023-05-14T05:45:07.602Z,101043.44
2023-05-14T05:46:11.096Z,101045.47
2023-05-14T05:47:14.264Z,101051.19
2023-05-14T05:48:17.550Z,101043.44
2023-05-14T05:49:20.761Z,101053.34
2023-05-14T05:50:25.402Z,101051.63
2023-05-14T05:51:29.140Z,101051.13
2023-05-14T05:52:32.559Z,101052.94
2023-05-14T05:53:36.246Z,101054.09
2023-05-14T05:54:40.326Z,101048.66
2023-05-14T05:55:43.473Z,101057.06
2023-05-14T05:56:47.018Z,101051.44
2023-05-14T05:57:50.330Z,101060.22
2023-05-14T05:58:53.737Z,101052.53
2023-05-14T05:59:57.416Z,101052.44
2023-05-14T06:01:01.227Z,101049.06
2023-05-14T06:02:04.745Z,101052.59
2023-05-14T06:03:08.331Z,101050.44
2023-05-14T06:04:11.914Z,101049.06
2023-05-14T06:05:15.605Z,101050.63
2023-05-14T06:06:19.164Z,101050.28
2023-05-14T06:07:22.721Z,101045.81
2023-05-14T06:08:26.074Z,101045.69
2023-05-14T06:09:29.580Z,101043.53
2023-05-14T06:10:35.042Z,101037.09
2023-05-14T06:11:38.557Z,101037.69
2023-05-14T06:12:42.268Z,101039.97
2023-05-14T06:13:45.754Z,101040.94
2023-05-14T06:14:49.122Z,101043.56
2023-05-14T06:15:52.697Z,101043.16
2023-05-14T06:16:55.987Z,101044.84
2023-05-14T06:17:59.441Z,101039.94
2023-05-14T06:19:03.389Z,101036.69
2023-05-14T06:20:08.494Z,101033.47
2023-05-14T06:21:11.661Z,101032.03
2023-05-14T06:22:15.306Z,101034.50
2023-05-14T06:23:18.928Z,101035.69
2023-05-14T06:24:22.210Z,101042.47
2023-05-14T06:25:25.533Z,101038.38
2023-05-14T06:26:28.518Z,101037.78
2023-05-14T06:27:31.532Z,101036.59
2023-05-14T06:28:35.033Z,101032.53
2023-05-14T06:29:39.106Z,101033.16
2023-05-14T06:30:42.478Z,101030.41
2023-05-14T06:31:46.074Z,101030.69
2023-05-14T06:32:49.203Z,101027.88
2023-05-14T06:33:52.230Z,101031.97
2023-05-14T06:34:55.811Z,101037.09
2023-05-14T06:36:05.726Z,101026.97
2023-05-14T06:37:10.487Z,101027.94
2023-05-14T06:38:14.184Z,101022.75
2023-05-14T06:39:17.504Z,101031.41
2023-05-14T06:40:21.293Z,101038.13
2023-05-14T06:41:25.225Z,101026.16
2023-05-14T06:42:28.568Z,101036.13
2023-05-14T06:43:31.876Z,101034.66
2023-05-14T06:44:35.492Z,101035.13
2023-05-14T06:45:38.507Z,101036.16
2023-05-14T06:46:42.082Z,101040.84
2023-05-14T06:47:45.488Z,101032.03
2023-05-14T06:48:49.005Z,101045.50
2023-05-14T06:49:52.815Z,101042.75
2023-05-14T06:50:56.822Z,101057.91
2023-05-14T06:52:00.245Z,101052.53
2023-05-14T06:53:03.366Z,101051.88
2023-05-14T06:54:06.590Z,101054.13
2023-05-14T06:55:09.823Z,101051.53
2023-05-14T06:56:14.086Z,101052.22
2023-05-14T06:57:17.870Z,101051.31
2023-05-14T06:58:21.431Z,101053.75
2023-05-14T06:59:24.898Z,101056.50
2023-05-14T07:00:28.957Z,101050.59
2023-05-14T07:01:32.267Z,101058.75
2023-05-14T07:02:36.415Z,101057.16
2023-05-14T07:03:40.117Z,101054.06
2023-05-14T07:04:43.423Z,101056.75
2023-05-14T07:05:47.231Z,101062.66
2023-05-14T07:06:50.820Z,101060.22
2023-05-14T07:07:53.962Z,101064.38
2023-05-14T07:08:57.433Z,101068.22
2023-05-14T07:10:01.215Z,101069.69
2023-05-14T07:11:04.762Z,101062.44
2023-05-14T07:12:08.595Z,101067.22
2023-05-14T07:13:11.953Z,101066.03
2023-05-14T07:14:15.187Z,101064.38
2023-05-14T07:15:18.688Z,101061.38
2023-05-14T07:16:21.968Z,101065.00
2023-05-14T07:17:25.037Z,101063.69
2023-05-14T07:18:28.857Z,101070.22
2023-05-14T07:19:32.556Z,101060.44
2023-05-14T07:20:36.175Z,101057.84
2023-05-14T07:21:39.445Z,101062.19
2023-05-14T07:22:42.504Z,101058.34
2023-05-14T07:23:45.676Z,101063.75
2023-05-14T07:24:48.553Z,101064.50
2023-05-14T07:25:52.188Z,101067.66
2023-05-14T07:26:57.808Z,101068.81
2023-05-14T07:28:01.296Z,101077.84
2023-05-14T07:29:04.695Z,101076.75
2023-05-14T07:30:09.322Z,101072.50
2023-05-14T07:31:12.233Z,101071.78
2023-05-14T07:32:15.940Z,101075.53
2023-05-14T07:33:19.378Z,101066.91
2023-05-14T07:34:23.205Z,101067.03
2023-05-14T07:35:26.623Z,101073.19
2023-05-14T07:36:29.985Z,101079.03
2023-05-14T07:37:33.812Z,101078.84
2023-05-14T07:38:37.237Z,101079.16
2023-05-14T07:39:42.606Z,101087.03
2023-05-14T07:40:46.207Z,101089.59
2023-05-14T07:41:50.716Z,101090.34
2023-05-14T07:42:53.949Z,101088.34
2023-05-14T07:43:57.326Z,101088.09
2023-05-14T07:45:00.746Z,101091.13
2023-05-14T07:46:04.033Z,101088.25
2023-05-14T07:47:09.572Z,101090.44
2023-05-14T07:48:13.411Z,101087.53
2023-05-14T07:49:16.441Z,101085.81
2023-05-14T07:50:20.248Z,101087.53
2023-05-14T07:51:23.717Z,101093.59
2023-05-14T07:52:26.832Z,101095.59
2023-05-14T07:53:30.226Z,101092.09
2023-05-14T07:54:34.190Z,101080.81
2023-05-14T07:55:37.741Z,101089.34
2023-05-14T07:56:41.164Z,101084.50
2023-05-14T07:57:44.654Z,101089.41
2023-05-14T07:58:47.787Z,101091.38
2023-05-14T07:59:51.050Z,101085.94
2023-05-14T08:00:54.373Z,101093.03
2023-05-14T08:01:58.542Z,101086.47
2023-05-14T08:03:02.219Z,101094.50
2023-05-14T08:04:05.868Z,101092.50
2023-05-14T08:05:10.352Z,101097.03
2023-05-14T08:06:13.961Z,101089.97
2023-05-14T08:07:18.178Z,101093.28
2023-05-14T08:08:21.484Z,101100.31
2023-05-14T08:09:24.779Z,101094.78
2023-05-14T08:10:28.242Z,101098.75
2023-05-14T08:11:31.624Z,101096.84
2023-05-14T08:12:34.894Z,101096.81
2023-05-14T08:13:38.401Z,101097.25
2023-05-14T08:14:42.212Z,101099.06
2023-05-14T08:15:45.752Z,101101.22
2023-05-14T08:16:49.217Z,101106.75
2023-05-14T08:17:52.776Z,101093.38
2023-05-14T08:18:56.595Z,101101.00
2023-05-14T08:20:00.195Z,101097.81
2023-05-14T08:21:04.149Z,101092.22
2023-05-14T08:22:07.699Z,101098.50
2023-05-14T08:23:11.271Z,101098.53
2023-05-14T08:24:15.139Z,101101.31
2023-05-14T08:25:18.641Z,101100.16
2023-05-14T08:26:22.754Z,101106.13
2023-05-14T08:27:27.225Z,101098.50
2023-05-14T08:28:30.150Z,101101.81
2023-05-14T08:29:33.981Z,101103.88
2023-05-14T08:30:37.593Z,101099.94
2023-05-14T08:31:41.930Z,101102.78
2023-05-14T08:32:45.615Z,101102.38
2023-05-14T08:33:48.800Z,101111.47
2023-05-14T08:34:52.160Z,101110.56
2023-05-14T08:35:55.434Z,101099.63
2023-05-14T08:36:58.596Z,101107.41
2023-05-14T08:38:01.649Z,101109.97
2023-05-14T08:39:04.570Z,101105.38
2023-05-14T08:40:09.152Z,101110.81
2023-05-14T08:41:12.539Z,101113.03
2023-05-14T08:42:15.464Z,101117.47
2023-05-14T08:43:20.110Z,101108.16
2023-05-14T08:44:33.810Z,101115.91
2023-05-14T08:45:37.723Z,101107.63
2023-05-14T08:46:40.962Z,101110.00
2023-05-14T08:47:44.565Z,101109.31
2023-05-14T08:48:49.081Z,101107.06
2023-05-14T08:50:10.407Z,101106.00
2023-05-14T08:51:14.001Z,101111.56
2023-05-14T08:52:18.123Z,101103.59
2023-05-14T08:53:21.393Z,101106.09
2023-05-14T08:54:26.223Z,101116.81
2023-05-14T08:55:29.765Z,101104.94
2023-05-14T08:56:34.177Z,101110.84
2023-05-14T08:57:38.268Z,101117.03
2023-05-14T08:58:41.748Z,101110.81
2023-05-14T08:59:45.438Z,101120.66
2023-05-14T09:00:49.071Z,101108.09
2023-05-14T09:01:55.604Z,101108.25
2023-05-14T09:02:58.787Z,101114.72
2023-05-14T09:04:07.853Z,101106.63
2023-05-14T09:05:11.578Z,101106.84
2023-05-14T09:06:14.869Z,101110.00
2023-05-14T09:07:18.815Z,101107.22
2023-05-14T09:08:22.090Z,101114.00
2023-05-14T09:09:25.246Z,101108.44
2023-05-14T09:10:28.354Z,101104.63
2023-05-14T09:11:31.966Z,101106.97
2023-05-14T09:12:35.670Z,101100.66
2023-05-14T09:13:40.304Z,101103.53
2023-05-14T09:14:44.707Z,101107.22
2023-05-14T09:15:47.564Z,101102.97
2023-05-14T09:16:51.583Z,101101.53
2023-05-14T09:17:55.391Z,101094.34
2023-05-14T09:18:58.613Z,101096.88
2023-05-14T09:20:01.737Z,101102.16
2023-05-14T09:21:05.304Z,101100.47
2023-05-14T09:22:13.341Z,101106.59
2023-05-14T09:23:16.783Z,101102.44
2023-05-14T09:24:24.853Z,101101.06
2023-05-14T09:25:29.241Z,101105.50
2023-05-14T09:26:33.588Z,101100.78
2023-05-14T09:27:37.072Z,101109.13
2023-05-14T09:28:43.301Z,101102.31
2023-05-14T09:29:46.876Z,101098.50
2023-05-14T09:30:53.335Z,101107.97
2023-05-14T09:31:57.621Z,101100.59
2023-05-14T09:33:01.362Z,101094.03
2023-05-14T09:34:04.935Z,101089.47
2023-05-14T09:35:33.869Z,101103.44
2023-05-14T09:36:37.754Z,101102.09
2023-05-14T09:37:45.346Z,101110.25
2023-05-14T09:38:48.999Z,101101.72
2023-05-14T09:39:52.300Z,101099.59
2023-05-14T09:40:55.929Z,101102.22
2023-05-14T09:41:59.748Z,101104.13
2023-05-14T09:43:03.617Z,101102.84
2023-05-14T09:44:06.835Z,101100.16
2023-05-14T09:45:11.546Z,101095.16
2023-05-14T09:46:14.712Z,101102.19
2023-05-14T09:47:17.654Z,101100.66
2023-05-14T09:48:20.724Z,101093.06
2023-05-14T09:49:24.262Z,101095.69
2023-05-14T09:50:27.785Z,101095.78
2023-05-14T09:51:32.890Z,101093.44
2023-05-14T09:52:36.333Z,101092.53
2023-05-14T09:53:40.104Z,101092.97
2023-05-14T09:54:43.644Z,101086.88
2023-05-14T09:55:47.151Z,101091.56
2023-05-14T09:56:50.069Z,101096.97
2023-05-14T09:57:53.122Z,101102.38
2023-05-14T09:58:56.338Z,101098.09
2023-05-14T09:59:59.790Z,101097.88
2023-05-14T10:01:03.112Z,101101.13
2023-05-14T10:02:06.117Z,101099.00
2023-05-14T10:03:09.560Z,101100.72
2023-05-14T10:04:12.558Z,101098.78
2023-05-14T10:05:17.143Z,101103.66
2023-05-14T10:06:21.690Z,101096.25
2023-05-14T10:07:28.390Z,101100.19
2023-05-14T10:08:34.696Z,101101.41
2023-05-14T10:09:38.422Z,101099.66
2023-05-14T10:10:42.009Z,101102.19
2023-05-14T10:11:46.815Z,101102.75
2023-05-14T10:13:00.039Z,101096.41
2023-05-14T10:14:08.498Z,101096.59
2023-05-14T10:15:18.883Z,101103.06
2023-05-14T10:16:30.000Z,101090.13
2023-05-14T10:17:34.419Z,101096.47
2023-05-14T10:18:42.144Z,101097.50
2023-05-14T10:19:51.544Z,101094.91
2023-05-14T10:21:02.222Z,101089.22
2023-05-14T10:22:07.733Z,101096.88
2023-05-14T10:23:11.687Z,101093.19
2023-05-14T10:24:14.680Z,101095.03
2023-05-14T10:25:18.229Z,101088.53
2023-05-14T10:26:23.964Z,101089.19
2023-05-14T10:27:27.384Z,101085.47
2023-05-14T10:28:31.490Z,101089.72
2023-05-14T10:29:35.297Z,101093.09
2023-05-14T10:30:46.445Z,101092.09
2023-05-14T10:31:56.681Z,101095.78
2023-05-14T10:33:10.430Z,101089.41
2023-05-14T10:34:33.552Z,101090.97
2023-05-14T10:35:58.178Z,101087.50
2023-05-14T10:37:21.377Z,101088.94
2023-05-14T10:38:39.774Z,101087.34
2023-05-14T10:39:46.661Z,101085.13
2023-05-14T10:40:51.580Z,101087.75
2023-05-14T10:41:56.415Z,101082.84
2023-05-14T10:42:59.781Z,101086.81
2023-05-14T10:44:08.952Z,101090.84
2023-05-14T10:45:14.044Z,101082.88
2023-05-14T10:46:17.230Z,101098.25
2023-05-14T10:47:20.515Z,101095.56
2023-05-14T10:48:24.237Z,101108.91
2023-05-14T10:49:42.457Z,101089.97
2023-05-14T10:50:48.687Z,101090.44
2023-05-14T10:51:54.352Z,101094.03
2023-05-14T10:52:58.022Z,101103.28
2023-05-14T10:54:02.449Z,101102.09
2023-05-14T10:55:10.472Z,101096.66
2023-05-14T10:56:14.780Z,101087.91
2023-05-14T10:57:19.238Z,101097.28
2023-05-14T10:58:22.470Z,101096.13
2023-05-14T10:59:29.002Z,101105.84
2023-05-14T11:00:34.668Z,101099.25
2023-05-14T11:01:37.923Z,101097.97
2023-05-14T11:02:42.463Z,101092.66
2023-05-14T11:03:47.227Z,101097.56
2023-05-14T11:05:11.649Z,101098.81
2023-05-14T11:06:15.797Z,101096.94
2023-05-14T11:07:20.971Z,101097.19
2023-05-14T11:08:26.494Z,101095.84
2023-05-14T11:09:30.881Z,101096.16
2023-05-14T11:10:34.134Z,101093.25
2023-05-14T11:11:37.609Z,101096.16
2023-05-14T11:12:42.591Z,101093.03
2023-05-14T11:13:46.336Z,101092.09
2023-05-14T11:14:49.889Z,101087.50
2023-05-14T11:15:53.244Z,101091.97
2023-05-14T11:16:56.661Z,101093.34
2023-05-14T11:18:00.624Z,101089.59
2023-05-14T11:19:04.897Z,101089.84
2023-05-14T11:20:09.119Z,101088.56
2023-05-14T11:21:12.684Z,101088.41
2023-05-14T11:22:16.543Z,101089.38
2023-05-14T11:23:20.120Z,101088.78
2023-05-14T11:24:23.211Z,101088.59
2023-05-14T11:25:26.975Z,101085.31
2023-05-14T11:26:30.908Z,101081.75
2023-05-14T11:27:38.825Z,101089.88
2023-05-14T11:28:42.293Z,101083.81
2023-05-14T11:29:47.128Z,101089.78
2023-05-14T11:30:54.281Z,101083.41
2023-05-14T11:31:57.934Z,101080.91
2023-05-14T11:33:02.204Z,101080.72
2023-05-14T11:34:07.682Z,101076.34
2023-05-14T11:35:11.235Z,101083.75
2023-05-14T11:36:15.147Z,101078.00
2023-05-14T11:37:18.657Z,101076.06
2023-05-14T11:38:22.168Z,101081.00
2023-05-14T11:39:25.961Z,101074.84
2023-05-14T11:40:29.355Z,101092.63
2023-05-14T11:41:32.675Z,101086.94
2023-05-14T11:42:36.022Z,101094.41
2023-05-14T11:43:39.613Z,101105.09
2023-05-14T11:44:45.372Z,101094.38
2023-05-14T11:45:53.421Z,101102.00
2023-05-14T11:46:57.756Z,101101.66
2023-05-14T11:48:01.694Z,101100.53
2023-05-14T11:49:07.833Z,101104.78
2023-05-14T11:50:12.132Z,101104.13
2023-05-14T11:51:15.765Z,101097.50
2023-05-14T11:52:20.158Z,101104.06
2023-05-14T11:53:27.712Z,101105.81
2023-05-14T11:54:30.913Z,101104.09
2023-05-14T11:55:37.268Z,101096.28
2023-05-14T11:56:40.942Z,101099.97
2023-05-14T11:57:44.482Z,101105.03
2023-05-14T11:58:50.767Z,101102.84
2023-05-14T12:00:00.162Z,101087.59
2023-05-14T12:01:03.881Z,101091.53
2023-05-14T12:02:09.279Z,101106.25
2023-05-14T12:03:12.869Z,101096.56
2023-05-14T12:04:16.060Z,101095.78
2023-05-14T12:05:20.114Z,101101.97
2023-05-14T12:06:23.437Z,101097.16
2023-05-14T12:07:30.147Z,101100.22
2023-05-14T12:08:33.286Z,101091.28
2023-05-14T12:09:50.279Z,101092.44
2023-05-14T12:10:56.527Z,101098.66
2023-05-14T12:12:00.040Z,101094.56
2023-05-14T12:13:08.184Z,101102.38
2023-05-14T12:14:31.937Z,101093.38
2023-05-14T12:15:35.600Z,101093.34
2023-05-14T12:16:40.999Z,101105.56